Time;durP1;ratioP1;P1;durP2;ratioP2;P2;SDS_P1;SDS_P2;PMS_P1;PMS_P2;Temp;Humidity;BMP_temperature;BMP_pressure;BME280_temperature;BME280_humidity;BME280_pressure;Samples;Min_cycle;Max_cycle;Signal;HPM_P1;HPM_P2
2021/12/06 00:00:42;;;;;;;28.27;16.55;;;4.00;99.90;;;;;;5052193;28;20044;-75
2021/12/06 00:03:15;;;;;;;22.38;14.98;;;4.20;99.90;;;;;;5052565;28;20025;-76
2021/12/06 00:05:41;;;;;;;28.10;16.42;;;4.40;99.90;;;;;;5052371;28;20021;-76
2021/12/06 00:08:07;;;;;;;22.73;15.32;;;4.60;99.90;;;;;;5056260;28;20427;-76
2021/12/06 00:10:33;;;;;;;26.70;16.58;;;4.50;99.90;;;;;;5072410;28;20031;-75
2021/12/06 00:12:59;;;;;;;28.35;17.92;;;4.70;99.90;;;;;;5072099;28;20101;-76
2021/12/06 00:15:30;;;;;;;24.40;16.38;;;4.90;99.90;;;;;;5072483;28;20035;-76
2021/12/06 00:17:56;;;;;;;24.40;15.68;;;5.00;99.90;;;;;;5072151;28;20039;-76
2021/12/06 00:20:22;;;;;;;27.55;15.23;;;5.20;99.90;;;;;;5072160;28;20049;-76
2021/12/06 00:22:48;;;;;;;27.45;15.10;;;5.10;99.90;;;;;;5054155;28;20017;-76
2021/12/06 00:25:15;;;;;;;23.92;16.23;;;5.00;99.90;;;;;;5067700;28;20083;-76
2021/12/06 00:27:41;;;;;;;23.85;14.77;;;5.00;99.90;;;;;;5052797;28;20021;-76
2021/12/06 00:30:11;;;;;;;29.55;16.15;;;5.00;99.90;;;;;;5055879;28;20087;-76
2021/12/06 00:32:39;;;;;;;22.25;15.10;;;5.10;99.90;;;;;;5038101;28;20044;-76
2021/12/06 00:35:06;;;;;;;27.05;16.52;;;4.70;99.90;;;;;;5038030;28;20087;-78
2021/12/06 00:37:41;;;;;;;23.77;15.75;;;4.50;99.90;;;;;;5055715;28;20092;-77
2021/12/06 00:40:09;;;;;;;27.40;15.38;;;4.60;99.90;;;;;;5037571;28;20041;-77
2021/12/06 00:42:35;;;;;;;23.98;15.60;;;4.80;99.90;;;;;;5037707;28;20017;-76
2021/12/06 00:45:04;;;;;;;31.75;17.77;;;4.60;99.90;;;;;;5055696;28;20040;-77
2021/12/06 00:47:30;;;;;;;23.80;15.38;;;4.80;99.90;;;;;;5055423;28;20040;-77
2021/12/06 00:49:56;;;;;;;23.63;14.98;;;5.00;99.90;;;;;;5055480;28;20025;-77
2021/12/06 00:52:22;;;;;;;22.02;16.23;;;5.10;99.90;;;;;;5037476;28;20029;-77
2021/12/06 00:54:49;;;;;;;26.48;16.65;;;5.30;99.90;;;;;;5055207;28;20037;-77
2021/12/06 00:57:15;;;;;;;22.70;14.70;;;5.40;99.90;;;;;;5021066;28;20021;-77
2021/12/06 00:59:41;;;;;;;23.42;15.15;;;4.90;99.90;;;;;;5037353;28;20082;-76
2021/12/06 01:02:09;;;;;;;26.27;16.90;;;5.00;99.90;;;;;;5037139;28;20017;-77
2021/12/06 01:04:38;;;;;;;24.52;16.35;;;5.20;99.90;;;;;;5037353;28;20167;-76
2021/12/06 01:07:05;;;;;;;36.80;20.85;;;5.30;99.90;;;;;;5037203;28;20402;-76
2021/12/06 01:09:31;;;;;;;33.42;18.98;;;5.40;99.90;;;;;;5070388;28;20029;-77
2021/12/06 01:11:57;;;;;;;30.77;18.42;;;5.60;99.90;;;;;;5074891;28;20385;-77
2021/12/06 01:14:23;;;;;;;30.48;18.90;;;5.40;99.90;;;;;;5074412;28;20115;-77
2021/12/06 01:16:50;;;;;;;31.20;18.63;;;5.20;99.90;;;;;;5056608;28;20056;-77
2021/12/06 01:19:16;;;;;;;28.38;17.13;;;5.10;99.90;;;;;;5074729;28;20370;-76
2021/12/06 01:21:49;;;;;;;31.55;18.63;;;5.30;99.90;;;;;;5056915;28;20078;-77
2021/12/06 01:24:18;;;;;;;35.25;20.00;;;5.20;99.90;;;;;;5074678;28;20032;-77
2021/12/06 01:39:57;;;;;;;37.05;20.65;;;5.10;99.90;;;;;;5036343;28;20489;-77
2021/12/06 01:42:24;;;;;;;32.63;21.27;;;5.40;99.90;;;;;;5020416;28;20053;-77
2021/12/06 01:44:54;;;;;;;29.23;19.77;;;5.50;99.90;;;;;;5036562;28;20037;-77
2021/12/06 01:47:30;;;;;;;35.08;21.50;;;5.40;99.90;;;;;;5036660;28;20021;-77
2021/12/06 01:50:09;;;;;;;27.80;18.98;;;5.30;99.90;;;;;;5036501;28;20043;-77
2021/12/06 01:52:50;;;;;;;34.70;21.17;;;5.30;99.90;;;;;;5036176;28;20032;-76
2021/12/06 01:55:25;;;;;;;30.33;19.42;;;5.50;99.90;;;;;;5036536;28;20021;-76
2021/12/06 01:57:53;;;;;;;29.77;20.85;;;5.60;99.90;;;;;;5036261;28;20037;-77
2021/12/06 02:00:30;;;;;;;32.42;21.27;;;5.70;99.90;;;;;;5036251;28;20037;-77
2021/12/06 02:03:01;;;;;;;40.30;23.60;;;5.70;99.90;;;;;;5036068;28;20032;-76
2021/12/06 02:05:37;;;;;;;35.90;24.83;;;5.80;99.90;;;;;;5036251;28;20025;-75
2021/12/06 02:08:05;;;;;;;37.97;25.65;;;5.80;99.90;;;;;;5036225;28;20028;-77
2021/12/06 02:10:32;;;;;;;40.83;26.83;;;5.90;99.90;;;;;;5036272;28;20025;-77
2021/12/06 02:12:58;;;;;;;44.72;27.75;;;5.90;99.90;;;;;;5036081;28;20025;-77
2021/12/06 02:18:03;;;;;;;38.17;25.95;;;6.20;99.90;;;;;;5035989;28;20078;-77
2021/12/06 02:20:30;;;;;;;41.97;27.70;;;6.10;99.90;;;;;;5035886;28;20033;-77
2021/12/06 02:22:57;;;;;;;39.38;26.88;;;6.20;99.90;;;;;;5053650;28;20021;-77
2021/12/06 02:25:23;;;;;;;40.83;28.10;;;6.10;99.90;;;;;;5059320;28;20074;-77
2021/12/06 02:27:52;;;;;;;48.65;28.00;;;6.00;99.90;;;;;;5055665;28;20033;-77
2021/12/06 02:30:20;;;;;;;41.33;26.92;;;6.20;99.90;;;;;;5055506;28;20095;-77
2021/12/06 02:32:48;;;;;;;43.10;27.63;;;6.20;99.90;;;;;;5073571;28;20028;-76
2021/12/06 02:35:18;;;;;;;40.58;27.05;;;6.30;99.90;;;;;;5073478;28;20487;-76
2021/12/06 02:37:45;;;;;;;46.47;29.05;;;6.10;99.90;;;;;;5055204;28;20381;-77
2021/12/06 02:40:39;;;;;;;50.88;29.17;;;6.10;99.90;;;;;;5073265;28;20117;-77
2021/12/06 02:43:08;;;;;;;48.40;28.67;;;6.00;99.90;;;;;;5053510;28;20036;-77
2021/12/06 02:45:34;;;;;;;46.15;29.77;;;6.00;99.90;;;;;;5055413;28;20024;-77
2021/12/06 02:48:05;;;;;;;42.90;28.67;;;6.20;99.90;;;;;;5073343;28;20106;-76
2021/12/06 02:50:38;;;;;;;46.15;29.85;;;6.30;99.90;;;;;;5054292;28;20025;-77
2021/12/06 02:53:05;;;;;;;43.10;28.17;;;6.40;99.90;;;;;;5055341;28;20033;-76
2021/12/06 02:55:36;;;;;;;40.80;27.88;;;6.40;99.90;;;;;;5054253;28;20032;-76
2021/12/06 02:58:22;;;;;;;38.30;26.23;;;6.30;99.90;;;;;;5055235;28;20023;-77
2021/12/06 03:00:55;;;;;;;39.25;26.63;;;6.50;99.90;;;;;;5055003;28;20036;-77
2021/12/06 03:03:22;;;;;;;40.65;27.15;;;6.40;99.90;;;;;;5055219;28;20024;-77
2021/12/06 03:05:52;;;;;;;46.97;28.05;;;6.30;99.90;;;;;;5072654;28;20024;-77
2021/12/06 03:08:38;;;;;;;44.50;28.52;;;6.20;99.90;;;;;;5055011;28;20020;-77
2021/12/06 03:11:12;;;;;;;43.40;27.92;;;6.20;99.90;;;;;;5054900;28;20024;-77
2021/12/06 03:13:39;;;;;;;43.72;28.70;;;6.20;99.90;;;;;;5055017;28;20086;-77
2021/12/06 03:16:06;;;;;;;48.80;29.80;;;6.00;99.90;;;;;;5054869;28;20034;-76
2021/12/06 03:18:33;;;;;;;53.58;32.63;;;5.80;99.90;;;;;;5038210;28;20024;-76
2021/12/06 03:20:59;;;;;;;53.45;32.35;;;5.90;99.90;;;;;;5038125;28;20043;-76
2021/12/06 03:23:26;;;;;;;53.67;32.00;;;5.90;99.90;;;;;;5073234;28;20072;-76
2021/12/06 03:25:52;;;;;;;44.53;30.30;;;5.90;99.90;;;;;;5054552;28;20501;-77
2021/12/06 03:28:18;;;;;;;51.78;32.17;;;6.00;99.90;;;;;;5054847;28;20604;-77
2021/12/06 03:30:45;;;;;;;49.80;31.63;;;6.00;99.90;;;;;;5054606;28;20035;-76
2021/12/06 03:33:12;;;;;;;58.50;33.22;;;6.00;99.90;;;;;;5072822;28;20033;-77
2021/12/06 03:35:38;;;;;;;49.85;30.85;;;5.90;99.90;;;;;;5054341;28;20032;-77
2021/12/06 03:38:04;;;;;;;50.03;30.65;;;5.90;99.90;;;;;;5072784;28;20392;-78
2021/12/06 03:40:31;;;;;;;47.13;31.02;;;5.80;99.90;;;;;;5054550;28;20075;-77
2021/12/06 03:42:58;;;;;;;44.90;29.83;;;5.70;99.90;;;;;;5054617;28;20534;-77
2021/12/06 03:45:24;;;;;;;49.60;31.38;;;5.60;99.90;;;;;;5054678;28;20039;-76
2021/12/06 03:47:50;;;;;;;50.30;32.63;;;5.40;99.90;;;;;;5072484;28;20024;-77
2021/12/06 03:50:16;;;;;;;44.85;30.02;;;5.50;99.90;;;;;;5072266;28;20020;-76
2021/12/06 03:52:43;;;;;;;46.80;31.73;;;5.50;99.90;;;;;;5054726;28;20082;-77
2021/12/06 03:55:10;;;;;;;52.45;32.20;;;5.30;99.90;;;;;;5054408;28;20024;-77
2021/12/06 03:57:37;;;;;;;48.80;31.02;;;5.30;99.90;;;;;;5054438;28;20052;-77
2021/12/06 04:00:08;;;;;;;57.08;33.70;;;5.30;99.90;;;;;;5054480;28;20481;-77
2021/12/06 04:02:39;;;;;;;;;;;5.30;99.90;;;;;;5077320;28;20032;-76
2021/12/06 04:05:06;;;;;;;59.05;35.30;;;5.30;99.90;;;;;;5058211;28;19913;-76
2021/12/06 04:07:33;;;;;;;50.92;32.60;;;5.30;99.90;;;;;;5058240;28;20606;-77
2021/12/06 04:09:59;;;;;;;57.05;33.83;;;5.30;99.90;;;;;;5041693;28;20039;-76
2021/12/06 04:12:26;;;;;;;59.92;36.13;;;5.10;99.90;;;;;;5058387;28;20392;-76
2021/12/06 04:14:54;;;;;;;56.22;34.35;;;4.90;99.90;;;;;;5058355;28;20393;-76
2021/12/06 04:17:20;;;;;;;54.38;33.60;;;4.80;99.90;;;;;;5058038;28;20032;-76
2021/12/06 04:19:47;;;;;;;56.63;33.70;;;4.80;99.90;;;;;;5057865;28;20115;-77
2021/12/06 04:22:15;;;;;;;61.67;34.67;;;4.70;99.90;;;;;;5058049;28;20028;-77
2021/12/06 04:24:40;;;;;;;62.40;36.92;;;4.60;99.90;;;;;;5058197;28;20028;-77
2021/12/06 04:27:15;;;;;;;60.42;35.15;;;4.60;99.90;;;;;;5054505;28;20021;-77
2021/12/06 04:29:45;;;;;;;59.75;34.47;;;4.60;99.90;;;;;;5038031;28;20032;-77
2021/12/06 04:32:12;;;;;;;59.83;34.55;;;4.60;99.90;;;;;;5055418;28;20045;-77
2021/12/06 04:34:40;;;;;;;55.92;34.15;;;4.70;99.90;;;;;;5021778;28;20037;-77
2021/12/06 04:37:06;;;;;;;61.72;35.15;;;4.50;99.90;;;;;;5055607;28;20029;-76
2021/12/06 04:39:34;;;;;;;64.10;36.45;;;4.40;99.90;;;;;;5037900;28;20072;-77
2021/12/06 04:42:02;;;;;;;59.25;34.72;;;4.50;99.90;;;;;;5037704;28;20124;-77
2021/12/06 04:44:27;;;;;;;51.63;32.38;;;4.50;99.90;;;;;;5037793;28;20021;-77
2021/12/06 04:46:54;;;;;;;56.92;32.95;;;4.60;99.90;;;;;;5037367;28;20025;-77
2021/12/06 04:49:20;;;;;;;56.85;33.47;;;4.50;99.90;;;;;;5055608;28;20024;-77
2021/12/06 04:51:50;;;;;;;57.83;32.33;;;4.50;99.90;;;;;;5037625;28;20497;-77
2021/12/06 04:54:18;;;;;;;57.55;33.80;;;4.40;99.90;;;;;;5037621;28;20124;-76
2021/12/06 04:56:49;;;;;;;59.13;35.40;;;4.30;99.90;;;;;;5037433;28;20029;-77
2021/12/06 04:59:22;;;;;;;63.47;36.87;;;4.30;99.90;;;;;;5037509;28;20120;-77
2021/12/06 05:01:52;;;;;;;60.03;36.35;;;4.40;99.90;;;;;;5037091;28;20033;-77
2021/12/06 05:04:23;;;;;;;59.67;33.78;;;4.30;99.90;;;;;;5037359;28;20162;-77
2021/12/06 05:06:54;;;;;;;60.67;34.33;;;4.20;99.90;;;;;;5020805;28;20393;-77
2021/12/06 05:09:32;;;;;;;58.58;34.30;;;4.10;99.90;;;;;;5055026;28;20036;-77
2021/12/06 05:11:58;;;;;;;55.22;33.10;;;4.10;99.90;;;;;;5036939;28;20032;-77
2021/12/06 05:14:25;;;;;;;55.85;32.97;;;4.10;99.90;;;;;;5036860;28;20021;-76
2021/12/06 05:16:53;;;;;;;56.03;33.90;;;4.10;99.90;;;;;;5036775;28;20032;-77
2021/12/06 05:19:21;;;;;;;62.97;33.97;;;3.90;99.90;;;;;;5036848;28;20037;-77
2021/12/06 05:21:47;;;;;;;61.92;34.35;;;3.90;99.90;;;;;;5037157;28;20021;-77
2021/12/06 05:24:16;;;;;;;59.90;35.15;;;3.90;99.90;;;;;;5036993;28;20029;-76
2021/12/06 05:26:42;;;;;;;54.13;31.58;;;3.80;99.90;;;;;;5053448;28;20056;-77
2021/12/06 05:29:13;;;;;;;56.03;33.92;;;3.70;99.90;;;;;;5056865;28;20555;-76
2021/12/06 05:31:41;;;;;;;58.33;33.05;;;3.70;99.90;;;;;;5056440;28;20035;-77
2021/12/06 05:34:14;;;;;;;62.35;34.67;;;3.70;99.90;;;;;;5056722;28;20038;-76
2021/12/06 05:36:40;;;;;;;65.57;34.80;;;3.80;99.90;;;;;;5074754;28;20047;-76
2021/12/06 05:39:06;;;;;;;62.78;34.13;;;3.50;99.90;;;;;;5074446;28;20021;-76
2021/12/06 05:41:33;;;;;;;63.50;35.65;;;3.60;99.90;;;;;;5074595;28;20039;-76
2021/12/06 05:43:59;;;;;;;69.95;37.28;;;3.80;99.90;;;;;;5074521;28;20407;-76
2021/12/06 05:46:26;;;;;;;68.70;34.92;;;3.80;99.90;;;;;;5074245;28;20025;-77
2021/12/06 05:48:51;;;;;;;70.95;36.90;;;3.90;99.90;;;;;;5056714;28;20025;-76
2021/12/06 05:51:17;;;;;;;75.95;37.00;;;4.00;99.90;;;;;;5056582;28;20089;-77
2021/12/06 05:53:43;;;;;;;78.03;39.05;;;4.00;99.90;;;;;;5074230;28;20028;-77
2021/12/06 05:56:09;;;;;;;71.13;38.83;;;4.10;99.90;;;;;;5074200;28;20031;-77
2021/12/06 05:58:35;;;;;;;67.15;37.88;;;4.10;99.90;;;;;;5074212;28;20066;-77
2021/12/06 06:01:02;;;;;;;71.20;36.20;;;4.20;99.90;;;;;;5074016;28;20066;-76
2021/12/06 06:03:27;;;;;;;73.07;38.33;;;4.10;99.90;;;;;;5074055;28;20040;-77
2021/12/06 06:05:54;;;;;;;71.45;37.92;;;3.80;99.90;;;;;;5074071;28;20099;-76
2021/12/06 06:08:20;;;;;;;73.70;38.28;;;3.50;99.90;;;;;;5067872;28;20021;-77
2021/12/06 06:10:47;;;;;;;90.30;40.72;;;3.70;99.90;;;;;;5054017;28;20021;-77
2021/12/06 06:13:13;;;;;;;284.13;59.88;;;3.80;99.90;;;;;;5054070;28;20119;-77
2021/12/06 06:15:39;;;;;;;1026.25;103.95;;;3.90;99.90;;;;;;5035762;28;20052;-76
2021/12/06 06:18:06;;;;;;;570.03;63.67;;;3.80;99.90;;;;;;5053801;28;20039;-77
2021/12/06 06:20:36;;;;;;;705.50;70.35;;;3.90;99.90;;;;;;5052300;28;20072;-76
2021/12/06 06:23:03;;;;;;;734.45;72.32;;;3.90;99.90;;;;;;5053739;28;20440;-77
2021/12/06 06:25:29;;;;;;;864.97;75.00;;;4.10;99.90;;;;;;5052581;28;20053;-77
2021/12/06 06:27:55;;;;;;;1992.50;164.60;;;4.30;99.90;;;;;;5053736;28;20021;-76
2021/12/06 06:30:21;;;;;;;851.97;84.45;;;3.90;99.90;;;;;;5053013;28;20481;-75
2021/12/06 06:32:47;;;;;;;587.42;51.63;;;3.90;99.90;;;;;;5053718;28;20029;-77
2021/12/06 06:35:15;;;;;;;516.78;48.00;;;3.80;99.90;;;;;;5053325;28;20432;-76
2021/12/06 06:37:41;;;;;;;627.53;53.08;;;3.40;99.90;;;;;;5053521;28;20075;-76
2021/12/06 06:40:07;;;;;;;772.28;71.75;;;3.30;99.90;;;;;;5053343;28;20041;-76
2021/12/06 06:42:34;;;;;;;775.40;75.47;;;3.30;99.90;;;;;;5053056;28;20084;-77
2021/12/06 06:45:00;;;;;;;1102.25;95.32;;;3.40;99.90;;;;;;5053388;28;20051;-76
2021/12/06 06:47:26;;;;;;;847.05;65.97;;;3.60;99.90;;;;;;5053386;28;20025;-77
2021/12/06 06:49:52;;;;;;;873.58;69.15;;;3.60;99.90;;;;;;5053258;28;20029;-77
2021/12/06 06:52:18;;;;;;;409.10;53.38;;;3.80;99.90;;;;;;5053149;28;20029;-77
2021/12/06 06:54:44;;;;;;;520.58;58.38;;;3.80;99.90;;;;;;5053166;28;20029;-76
2021/12/06 06:57:10;;;;;;;693.90;79.03;;;3.70;99.90;;;;;;5052728;28;20488;-76
2021/12/06 06:59:36;;;;;;;940.58;98.80;;;3.60;99.90;;;;;;5053139;28;20032;-77
2021/12/06 07:02:03;;;;;;;635.10;65.47;;;3.60;99.90;;;;;;5053523;28;20466;-77
2021/12/06 07:04:29;;;;;;;586.97;66.85;;;3.60;99.90;;;;;;5053014;28;20059;-77
2021/12/06 07:06:55;;;;;;;836.45;78.32;;;3.50;99.90;;;;;;5052921;28;20427;-77
2021/12/06 07:09:21;;;;;;;626.53;66.53;;;3.50;99.90;;;;;;5066999;28;20476;-77
2021/12/06 07:11:47;;;;;;;483.70;53.00;;;3.50;99.90;;;;;;5054459;28;20040;-77
2021/12/06 07:14:13;;;;;;;861.75;79.93;;;3.40;99.90;;;;;;5072747;28;20020;-76
2021/12/06 07:16:40;;;;;;;413.65;48.17;;;3.40;99.90;;;;;;5072859;28;20056;-76
2021/12/06 07:19:05;;;;;;;415.35;51.38;;;3.30;99.90;;;;;;5072680;28;20031;-76
2021/12/06 07:21:31;;;;;;;649.17;71.57;;;3.00;99.90;;;;;;5072648;28;20032;-76
2021/12/06 07:23:57;;;;;;;429.20;47.72;;;2.80;99.90;;;;;;5034568;28;20094;-76
2021/12/06 07:26:23;;;;;;;562.42;52.50;;;2.80;99.90;;;;;;5051812;28;20031;-74
2021/12/06 07:28:51;;;;;;;485.55;45.85;;;2.70;99.90;;;;;;5068315;28;20074;-74
2021/12/06 07:31:18;;;;;;;331.52;41.97;;;2.80;99.90;;;;;;5071455;28;20033;-75
2021/12/06 07:33:46;;;;;;;294.17;43.20;;;2.80;99.90;;;;;;5072359;28;20469;-75
2021/12/06 07:36:13;;;;;;;269.50;35.83;;;2.70;99.90;;;;;;5073700;28;20044;-76
2021/12/06 07:38:39;;;;;;;326.92;40.00;;;2.60;99.90;;;;;;5076401;28;20133;-76
2021/12/06 07:41:14;;;;;;;385.23;41.03;;;2.50;99.90;;;;;;5058285;28;20138;-75
2021/12/06 07:43:40;;;;;;;345.77;40.05;;;2.40;99.90;;;;;;5076414;28;20052;-75
2021/12/06 07:46:07;;;;;;;303.23;38.95;;;2.40;99.90;;;;;;5076204;28;20024;-76
2021/12/06 07:48:33;;;;;;;379.15;42.80;;;2.30;99.90;;;;;;5076012;28;20380;-75
2021/12/06 07:51:00;;;;;;;364.13;43.75;;;2.30;99.90;;;;;;5075972;28;20073;-76
2021/12/06 07:53:28;;;;;;;183.95;38.30;;;2.40;99.90;;;;;;5046088;28;20021;-75
2021/12/06 07:55:53;;;;;;;233.23;39.17;;;2.50;99.90;;;;;;5055803;28;20032;-76
2021/12/06 07:58:19;;;;;;;256.75;41.08;;;2.60;99.90;;;;;;5056018;28;20151;-75
2021/12/06 08:00:48;;;;;;;234.88;37.72;;;2.60;99.90;;;;;;5055677;28;20033;-75
2021/12/06 08:03:16;;;;;;;396.27;47.38;;;2.60;99.90;;;;;;5055458;28;20474;-76
2021/12/06 08:05:44;;;;;;;230.07;39.53;;;2.60;99.90;;;;;;5055886;28;20131;-76
2021/12/06 08:08:22;;;;;;;569.85;55.03;;;2.70;99.90;;;;;;5060295;28;20031;-75
2021/12/06 08:10:54;;;;;;;203.35;39.08;;;2.70;99.90;;;;;;5075654;28;20036;-77
2021/12/06 08:13:29;;;;;;;202.40;39.40;;;2.60;99.90;;;;;;5075877;28;20159;-75
2021/12/06 08:15:58;;;;;;;186.77;41.72;;;2.60;99.90;;;;;;5075822;28;20032;-75
2021/12/06 08:18:24;;;;;;;273.85;40.28;;;2.60;99.90;;;;;;5075642;28;20495;-75
2021/12/06 08:20:51;;;;;;;197.82;37.20;;;2.70;99.90;;;;;;5057614;28;20047;-76
2021/12/06 08:23:17;;;;;;;241.27;39.40;;;2.50;99.90;;;;;;5062029;28;20383;-75
2021/12/06 08:25:46;;;;;;;161.73;37.70;;;2.60;99.90;;;;;;5055202;28;20037;-76
2021/12/06 08:28:14;;;;;;;245.68;42.50;;;2.50;99.90;;;;;;5055211;28;20025;-75
2021/12/06 08:30:40;;;;;;;228.13;40.90;;;2.50;99.90;;;;;;5055328;28;20100;-75
2021/12/06 08:33:07;;;;;;;179.82;38.55;;;2.60;99.90;;;;;;5055562;28;20040;-76
2021/12/06 08:35:36;;;;;;;162.13;36.30;;;2.50;99.90;;;;;;5055523;28;20029;-75
2021/12/06 08:38:02;;;;;;;183.88;37.75;;;2.70;99.90;;;;;;5037255;28;20033;-76
2021/12/06 08:40:29;;;;;;;217.32;40.00;;;2.70;99.90;;;;;;5037052;28;20464;-76
2021/12/06 08:42:56;;;;;;;178.50;36.08;;;2.70;99.90;;;;;;5037171;28;20454;-75
2021/12/06 08:45:27;;;;;;;169.50;38.15;;;2.60;99.90;;;;;;5055144;28;20037;-76
2021/12/06 08:47:53;;;;;;;163.65;38.17;;;2.70;99.90;;;;;;5054058;28;20053;-76
2021/12/06 08:50:22;;;;;;;224.18;41.70;;;2.80;99.90;;;;;;5054989;28;20025;-77
2021/12/06 08:52:48;;;;;;;225.88;46.42;;;2.80;99.90;;;;;;5064427;28;20040;-75
2021/12/06 08:55:15;;;;;;;159.57;38.95;;;2.80;99.90;;;;;;5074769;28;20021;-75
2021/12/06 08:57:43;;;;;;;156.98;40.78;;;2.60;99.90;;;;;;5074483;28;20070;-75
2021/12/06 09:00:24;;;;;;;150.23;37.05;;;2.80;99.90;;;;;;5073603;28;20400;-75
2021/12/06 09:02:50;;;;;;;163.45;40.85;;;2.70;99.90;;;;;;5057220;28;20046;-75
2021/12/06 09:05:16;;;;;;;166.52;42.35;;;2.70;99.90;;;;;;5075322;28;20024;-76
2021/12/06 09:07:42;;;;;;;276.58;42.92;;;2.80;99.90;;;;;;5074283;28;20028;-76
2021/12/06 09:10:12;;;;;;;175.30;38.85;;;2.80;99.90;;;;;;5055492;28;20099;-76
2021/12/06 09:12:39;;;;;;;162.43;37.05;;;2.80;99.90;;;;;;5055461;28;20040;-75
2021/12/06 09:15:09;;;;;;;211.38;43.25;;;2.60;99.90;;;;;;5055377;28;20025;-76
2021/12/06 09:17:35;;;;;;;182.38;41.10;;;2.70;99.90;;;;;;5057302;28;20036;-75
2021/12/06 09:20:04;;;;;;;131.18;35.90;;;2.70;99.90;;;;;;5056117;28;20048;-75
2021/12/06 09:22:30;;;;;;;231.75;43.38;;;2.80;99.90;;;;;;5054656;28;20532;-75
2021/12/06 09:24:56;;;;;;;180.93;43.58;;;2.90;99.90;;;;;;5063302;28;20124;-75
2021/12/06 09:27:23;;;;;;;218.05;40.03;;;2.80;99.90;;;;;;5066753;28;20476;-75
2021/12/06 09:29:49;;;;;;;137.32;38.33;;;2.70;99.90;;;;;;5074604;28;20472;-75
2021/12/06 09:32:16;;;;;;;136.15;37.65;;;2.70;99.90;;;;;;5074358;28;20029;-75
2021/12/06 09:34:44;;;;;;;104.90;40.05;;;2.70;99.90;;;;;;5074675;28;20040;-74
2021/12/06 09:37:10;;;;;;;122.82;37.80;;;2.80;99.90;;;;;;5074190;28;20021;-75
2021/12/06 09:39:37;;;;;;;120.93;36.58;;;2.70;99.90;;;;;;5074216;28;20086;-75
2021/12/06 09:42:05;;;;;;;104.78;37.33;;;2.60;99.90;;;;;;5074415;28;20012;-75
2021/12/06 09:44:31;;;;;;;141.90;38.55;;;2.60;99.90;;;;;;5074407;28;20040;-78
2021/12/06 09:46:57;;;;;;;159.20;40.45;;;2.70;99.90;;;;;;5074408;28;20039;-77
2021/12/06 09:49:24;;;;;;;71.72;33.25;;;2.70;99.90;;;;;;5074174;28;20025;-75
2021/12/06 09:51:55;;;;;;;101.85;37.25;;;2.70;99.90;;;;;;5073903;28;20024;-76
2021/12/06 09:54:24;;;;;;;87.13;35.77;;;2.70;99.90;;;;;;5063086;28;20057;-76
2021/12/06 09:56:53;;;;;;;123.18;34.80;;;2.80;99.90;;;;;;5036446;28;20025;-76
2021/12/06 09:59:24;;;;;;;102.13;35.15;;;2.70;99.90;;;;;;5053758;28;20431;-76
2021/12/06 10:02:02;;;;;;;89.95;34.53;;;2.60;99.90;;;;;;5053941;28;20037;-76
2021/12/06 10:04:31;;;;;;;139.07;35.90;;;2.70;99.90;;;;;;5053432;28;20117;-76
2021/12/06 10:06:58;;;;;;;99.43;34.28;;;2.60;99.90;;;;;;5053646;28;20028;-76
2021/12/06 10:09:25;;;;;;;103.15;37.22;;;2.60;99.90;;;;;;5053631;28;20363;-75
2021/12/06 10:11:55;;;;;;;86.68;37.30;;;2.70;99.90;;;;;;5053775;28;20056;-76
2021/12/06 10:14:21;;;;;;;83.50;39.70;;;2.70;99.90;;;;;;5053458;28;20036;-76
2021/12/06 10:16:47;;;;;;;66.07;34.50;;;2.80;99.90;;;;;;5053911;28;20036;-75
2021/12/06 10:19:14;;;;;;;90.82;41.53;;;2.90;99.90;;;;;;5053503;28;20421;-77
2021/12/06 10:21:40;;;;;;;94.82;42.90;;;3.10;99.90;;;;;;5053469;28;20040;-76
2021/12/06 10:24:19;;;;;;;103.68;46.22;;;3.10;99.90;;;;;;5052956;28;20394;-76
2021/12/06 10:26:46;;;;;;;118.75;53.50;;;3.20;99.90;;;;;;5053477;28;20108;-76
2021/12/06 10:29:22;;;;;;;113.45;51.47;;;3.10;99.90;;;;;;5053477;28;20029;-76
2021/12/06 10:31:53;;;;;;;111.43;52.72;;;3.10;99.90;;;;;;5053563;28;20024;-76
2021/12/06 10:34:25;;;;;;;119.30;51.88;;;3.20;99.90;;;;;;5053421;28;20435;-76
2021/12/06 10:36:54;;;;;;;117.63;51.40;;;3.20;99.90;;;;;;5053166;28;20042;-76
2021/12/06 10:39:21;;;;;;;105.13;49.70;;;3.40;99.90;;;;;;5053126;28;20072;-75
2021/12/06 10:41:53;;;;;;;104.10;49.40;;;3.50;99.90;;;;;;5035326;28;20069;-75
2021/12/06 10:44:19;;;;;;;108.70;46.78;;;3.40;99.90;;;;;;5053281;28;20033;-75
2021/12/06 10:46:51;;;;;;;94.95;45.83;;;3.30;99.90;;;;;;5053281;28;20033;-76
2021/12/06 10:49:26;;;;;;;115.63;54.40;;;3.40;99.90;;;;;;5052658;28;20028;-74
2021/12/06 10:51:52;;;;;;;111.47;50.53;;;3.40;99.90;;;;;;5053059;28;20033;-75
2021/12/06 10:54:33;;;;;;;107.50;50.05;;;3.40;99.90;;;;;;5042640;28;20028;-78
2021/12/06 10:57:03;;;;;;;109.20;49.13;;;3.40;99.90;;;;;;5072921;28;20054;-81
2021/12/06 10:59:33;;;;;;;120.65;48.80;;;3.50;99.90;;;;;;5072674;28;20037;-80
2021/12/06 11:02:06;;;;;;;107.32;47.97;;;3.50;99.90;;;;;;5073401;28;20036;-79
2021/12/06 11:04:32;;;;;;;97.43;45.85;;;3.70;99.90;;;;;;5072454;28;20488;-79
2021/12/06 11:07:09;;;;;;;98.30;41.95;;;3.80;99.90;;;;;;5072938;28;20024;-80
2021/12/06 11:09:38;;;;;;;78.72;38.25;;;4.00;99.90;;;;;;5073006;28;20112;-78
2021/12/06 11:12:05;;;;;;;75.82;38.53;;;3.90;99.90;;;;;;5072466;28;20033;-79
2021/12/06 11:14:37;;;;;;;81.65;38.50;;;3.70;99.90;;;;;;5072959;28;20028;-80
2021/12/06 11:17:04;;;;;;;;;;;3.80;99.90;;;;;;5073087;28;20037;-80
2021/12/06 11:19:31;;;;;;;70.93;34.00;;;3.70;99.90;;;;;;5072569;28;20288;-80
2021/12/06 11:22:11;;;;;;;67.03;32.70;;;3.80;99.90;;;;;;5072775;28;20036;-80
2021/12/06 11:24:51;;;;;;;60.75;31.08;;;3.90;99.90;;;;;;5054821;28;20123;-80
2021/12/06 11:27:29;;;;;;;65.75;32.53;;;4.00;99.90;;;;;;5072617;28;20032;-80
2021/12/06 11:30:06;;;;;;;59.97;30.92;;;4.20;99.90;;;;;;5072274;28;20475;-79
2021/12/06 11:32:43;;;;;;;54.75;30.05;;;4.20;99.90;;;;;;5054558;28;20036;-76
2021/12/06 11:35:12;;;;;;;51.53;28.70;;;4.30;99.90;;;;;;5070782;28;20035;-80
2021/12/06 11:37:44;;;;;;;54.08;28.52;;;4.20;99.90;;;;;;5070396;28;20063;-79
2021/12/06 11:40:17;;;;;;;48.95;28.25;;;4.20;99.90;;;;;;5071501;28;20037;-79
2021/12/06 11:43:03;;;;;;;53.05;30.38;;;4.20;99.90;;;;;;5072537;28;20039;-79
2021/12/06 11:45:36;;;;;;;50.42;28.83;;;4.20;99.90;;;;;;5057795;28;20527;-79
2021/12/06 11:48:12;;;;;;;45.90;27.08;;;4.10;99.90;;;;;;5065935;28;20483;-78
2021/12/06 11:50:42;;;;;;;52.08;29.27;;;4.20;99.90;;;;;;5072425;28;20487;-79
2021/12/06 11:53:08;;;;;;;48.70;26.00;;;4.30;99.90;;;;;;5071152;28;20425;-79
2021/12/06 11:55:36;;;;;;;44.35;27.20;;;4.30;99.90;;;;;;5051324;28;20044;-79
2021/12/06 11:58:03;;;;;;;48.78;26.40;;;4.60;99.90;;;;;;5053293;28;20031;-79
2021/12/06 12:00:30;;;;;;;43.47;26.85;;;4.90;99.90;;;;;;5071649;28;20036;-78
2021/12/06 12:02:59;;;;;;;52.95;27.90;;;5.20;99.90;;;;;;5070915;28;20071;-79
2021/12/06 12:05:32;;;;;;;49.72;28.45;;;6.00;99.90;;;;;;5070816;28;20032;-80
2021/12/06 12:08:04;;;;;;;42.92;25.33;;;6.20;99.90;;;;;;5067929;28;20063;-79
2021/12/06 12:10:55;;;;;;;45.97;27.42;;;5.90;99.90;;;;;;5071379;28;20029;-79
2021/12/06 12:13:34;;;;;;;44.83;26.30;;;5.60;99.90;;;;;;5058928;28;20045;-79
2021/12/06 12:16:11;;;;;;;46.00;27.90;;;5.40;99.90;;;;;;5056145;28;20067;-74
2021/12/06 12:18:39;;;;;;;50.72;28.08;;;5.40;99.90;;;;;;5052126;28;20032;-79
2021/12/06 12:21:07;;;;;;;49.15;27.48;;;5.30;99.90;;;;;;5051362;28;20366;-79
2021/12/06 12:23:33;;;;;;;50.13;29.67;;;5.20;99.90;;;;;;5055554;28;20035;-79
2021/12/06 12:26:04;;;;;;;52.00;28.88;;;5.00;99.90;;;;;;5055318;28;20031;-79
2021/12/06 12:28:36;;;;;;;54.58;30.10;;;5.00;99.90;;;;;;5055864;28;20056;-79
2021/12/06 12:31:05;;;;;;;41.97;26.58;;;5.10;99.90;;;;;;5055668;28;20031;-79
2021/12/06 12:33:31;;;;;;;51.50;26.23;;;5.20;99.90;;;;;;5055635;28;20083;-79
2021/12/06 12:36:01;;;;;;;46.75;25.35;;;5.30;99.90;;;;;;5055836;28;20104;-79
2021/12/06 12:38:36;;;;;;;48.35;29.02;;;5.30;99.90;;;;;;5055522;28;20035;-78
2021/12/06 12:41:06;;;;;;;50.58;25.73;;;5.30;99.90;;;;;;5063880;28;20054;-79
2021/12/06 12:43:42;;;;;;;49.53;29.02;;;5.40;99.90;;;;;;5074792;28;20464;-79
2021/12/06 12:46:36;;;;;;;46.92;28.52;;;5.40;99.90;;;;;;5074760;28;20032;-80
2021/12/06 12:49:14;;;;;;;46.67;26.50;;;5.30;99.90;;;;;;5067237;28;20041;-79
2021/12/06 12:51:51;;;;;;;46.78;25.58;;;5.30;99.90;;;;;;5055326;28;20086;-80
2021/12/06 12:54:25;;;;;;;35.80;23.38;;;5.40;99.90;;;;;;5055360;28;20107;-79
2021/12/06 12:56:55;;;;;;;43.60;24.23;;;5.30;99.90;;;;;;5055517;28;20167;-78